sensor_id;sensor_type;location;lat;lon;timestamp;temperature;humidity
27368;DHT22;14839;48.106;11.618;2023-04-10T04:01:35;-0.20;94.60
27368;DHT22;14839;48.106;11.618;2023-04-10T04:04:00;-0.30;94.60
27368;DHT22;14839;48.106;11.618;2023-04-10T04:06:26;-0.30;94.60
27368;DHT22;14839;48.106;11.618;2023-04-10T04:08:52;-0.30;94.60
27368;DHT22;14839;48.106;11.618;2023-04-10T04:11:17;-0.30;94.60
27368;DHT22;14839;48.106;11.618;2023-04-10T04:13:43;-0.30;94.60
27368;DHT22;14839;48.106;11.618;2023-04-10T04:16:09;-0.30;94.60
27368;DHT22;14839;48.106;11.618;2023-04-10T04:18:35;-0.20;94.60
27368;DHT22;14839;48.106;11.618;2023-04-10T04:21:00;-0.10;94.60
27368;DHT22;14839;48.106;11.618;2023-04-10T04:23:26;-0.10;94.60
27368;DHT22;14839;48.106;11.618;2023-04-10T04:25:52;0.00;94.60
27368;DHT22;14839;48.106;11.618;2023-04-10T04:28:20;0.10;94.60
27368;DHT22;14839;48.106;11.618;2023-04-10T04:30:46;0.10;94.60
27368;DHT22;14839;48.106;11.618;2023-04-10T04:33:12;0.20;94.60
27368;DHT22;14839;48.106;11.618;2023-04-10T04:35:37;0.20;94.60
27368;DHT22;14839;48.106;11.618;2023-04-10T04:38:03;0.30;94.60
27368;DHT22;14839;48.106;11.618;2023-04-10T04:40:28;0.30;94.60
27368;DHT22;14839;48.106;11.618;2023-04-10T04:42:54;0.30;94.60
27368;DHT22;14839;48.106;11.618;2023-04-10T04:45:20;0.30;94.60
27368;DHT22;14839;48.106;11.618;2023-04-10T04:47:46;0.30;94.60
27368;DHT22;14839;48.106;11.618;2023-04-10T04:50:11;0.30;94.60
27368;DHT22;14839;48.106;11.618;2023-04-10T04:52:37;0.30;94.60
27368;DHT22;14839;48.106;11.618;2023-04-10T04:55:03;0.30;94.60
27368;DHT22;14839;48.106;11.618;2023-04-10T04:57:28;0.30;94.60
27368;DHT22;14839;48.106;11.618;2023-04-10T04:59:54;0.40;94.60
27368;DHT22;14839;48.106;11.618;2023-04-10T05:02:19;0.40;94.60
27368;DHT22;14839;48.106;11.618;2023-04-10T05:04:47;0.50;94.60
27368;DHT22;14839;48.106;11.618;2023-04-10T05:07:13;0.60;94.60
27368;DHT22;14839;48.106;11.618;2023-04-10T05:09:38;0.80;94.60
27368;DHT22;14839;48.106;11.618;2023-04-10T05:12:04;1.50;94.60
27368;DHT22;14839;48.106;11.618;2023-04-10T05:14:30;2.10;94.60
27368;DHT22;14839;48.106;11.618;2023-04-10T05:16:56;3.00;94.60
27368;DHT22;14839;48.106;11.618;2023-04-10T05:19:21;4.20;94.60
27368;DHT22;14839;48.106;11.618;2023-04-10T05:21:47;5.20;94.60
27368;DHT22;14839;48.106;11.618;2023-04-10T05:24:12;5.60;92.20
27368;DHT22;14839;48.106;11.618;2023-04-10T05:26:38;6.10;91.00
27368;DHT22;14839;48.106;11.618;2023-04-10T05:29:05;7.20;87.20
27368;DHT22;14839;48.106;11.618;2023-04-10T05:31:30;6.90;84.80
27368;DHT22;14839;48.106;11.618;2023-04-10T05:33:56;7.70;84.80
27368;DHT22;14839;48.106;11.618;2023-04-10T05:36:21;9.10;79.60
27368;DHT22;14839;48.106;11.618;2023-04-10T05:38:47;8.20;78.70
27368;DHT22;14839;48.106;11.618;2023-04-10T05:41:13;8.70;79.70
27368;DHT22;14839;48.106;11.618;2023-04-10T05:43:38;8.60;76.90
27368;DHT22;14839;48.106;11.618;2023-04-10T05:46:04;8.40;78.70
27368;DHT22;14839;48.106;11.618;2023-04-10T05:48:29;8.80;78.40
27368;DHT22;14839;48.106;11.618;2023-04-10T05:50:55;9.50;76.10
27368;DHT22;14839;48.106;11.618;2023-04-10T05:53:21;9.30;76.00
27368;DHT22;14839;48.106;11.618;2023-04-10T05:55:49;10.10;73.10
27368;DHT22;14839;48.106;11.618;2023-04-10T05:58:16;9.90;72.40
27368;DHT22;14839;48.106;11.618;2023-04-10T06:00:41;11.20;71.60
27368;DHT22;14839;48.106;11.618;2023-04-10T06:03:07;11.70;67.70
27368;DHT22;14839;48.106;11.618;2023-04-10T06:05:32;11.50;69.20
27368;DHT22;14839;48.106;11.618;2023-04-10T06:07:58;12.30;65.90
27368;DHT22;14839;48.106;11.618;2023-04-10T06:10:28;10.90;70.70
27368;DHT22;14839;48.106;11.618;2023-04-10T06:12:53;10.10;74.20
27368;DHT22;14839;48.106;11.618;2023-04-10T06:15:19;10.70;72.10
27368;DHT22;14839;48.106;11.618;2023-04-10T06:17:45;10.40;72.40
27368;DHT22;14839;48.106;11.618;2023-04-10T06:20:11;9.30;76.10
27368;DHT22;14839;48.106;11.618;2023-04-10T06:22:36;10.10;74.90
27368;DHT22;14839;48.106;11.618;2023-04-10T06:25:02;10.60;75.20
27368;DHT22;14839;48.106;11.618;2023-04-10T06:27:27;10.90;72.50
27368;DHT22;14839;48.106;11.618;2023-04-10T06:29:53;10.40;76.10
27368;DHT22;14839;48.106;11.618;2023-04-10T06:32:19;11.30;71.90
27368;DHT22;14839;48.106;11.618;2023-04-10T06:34:45;11.30;70.40
27368;DHT22;14839;48.106;11.618;2023-04-10T06:37:10;12.00;68.60
27368;DHT22;14839;48.106;11.618;2023-04-10T06:39:36;11.80;67.90
27368;DHT22;14839;48.106;11.618;2023-04-10T06:42:02;11.90;69.80
27368;DHT22;14839;48.106;11.618;2023-04-10T06:44:27;12.20;69.80
27368;DHT22;14839;48.106;11.618;2023-04-10T06:46:53;13.00;67.00
27368;DHT22;14839;48.106;11.618;2023-04-10T06:49:19;12.30;66.70
27368;DHT22;14839;48.106;11.618;2023-04-10T06:51:44;12.40;67.90
27368;DHT22;14839;48.106;11.618;2023-04-10T06:54:12;13.00;67.10
27368;DHT22;14839;48.106;11.618;2023-04-10T06:56:38;13.00;66.10
27368;DHT22;14839;48.106;11.618;2023-04-10T06:59:04;11.90;67.40
27368;DHT22;14839;48.106;11.618;2023-04-10T07:01:29;11.20;72.10
27368;DHT22;14839;48.106;11.618;2023-04-10T07:03:55;11.70;71.90
27368;DHT22;14839;48.106;11.618;2023-04-10T07:06:21;11.20;71.90
27368;DHT22;14839;48.106;11.618;2023-04-10T07:08:48;11.00;72.80
27368;DHT22;14839;48.106;11.618;2023-04-10T07:11:13;11.60;73.40
27368;DHT22;14839;48.106;11.618;2023-04-10T07:13:39;12.10;69.20
27368;DHT22;14839;48.106;11.618;2023-04-10T07:16:05;11.30;71.30
27368;DHT22;14839;48.106;11.618;2023-04-10T07:18:33;10.40;73.90
27368;DHT22;14839;48.106;11.618;2023-04-10T07:20:59;10.30;77.00
27368;DHT22;14839;48.106;11.618;2023-04-10T07:23:25;10.60;75.80
27368;DHT22;14839;48.106;11.618;2023-04-10T07:25:51;11.20;73.40
27368;DHT22;14839;48.106;11.618;2023-04-10T07:28:17;11.40;72.20
27368;DHT22;14839;48.106;11.618;2023-04-10T07:30:43;10.80;74.60
27368;DHT22;14839;48.106;11.618;2023-04-10T07:33:08;10.70;71.90
27368;DHT22;14839;48.106;11.618;2023-04-10T07:35:34;11.00;74.20
27368;DHT22;14839;48.106;11.618;2023-04-10T07:38:01;12.00;72.10
27368;DHT22;14839;48.106;11.618;2023-04-10T07:40:26;12.60;68.30
27368;DHT22;14839;48.106;11.618;2023-04-10T07:42:52;12.80;67.30
27368;DHT22;14839;48.106;11.618;2023-04-10T07:45:17;12.90;66.70
27368;DHT22;14839;48.106;11.618;2023-04-10T07:47:43;12.30;67.30
27368;DHT22;14839;48.106;11.618;2023-04-10T07:50:08;11.70;69.10
27368;DHT22;14839;48.106;11.618;2023-04-10T07:52:34;11.30;70.00
27368;DHT22;14839;48.106;11.618;2023-04-10T07:55:01;11.00;70.60
27368;DHT22;14839;48.106;11.618;2023-04-10T07:57:27;11.30;70.00
27368;DHT22;14839;48.106;11.618;2023-04-10T07:59:53;11.40;69.70
27368;DHT22;14839;48.106;11.618;2023-04-10T08:02:18;11.50;69.10
27368;DHT22;14839;48.106;11.618;2023-04-10T08:04:44;11.50;68.90
27368;DHT22;14839;48.106;11.618;2023-04-10T08:07:09;11.90;67.90
27368;DHT22;14839;48.106;11.618;2023-04-10T08:09:35;11.80;67.10
27368;DHT22;14839;48.106;11.618;2023-04-10T08:12:00;11.50;68.50
27368;DHT22;14839;48.106;11.618;2023-04-10T08:14:26;11.40;68.80
27368;DHT22;14839;48.106;11.618;2023-04-10T08:16:52;11.40;68.50
27368;DHT22;14839;48.106;11.618;2023-04-10T08:19:17;11.20;68.90
27368;DHT22;14839;48.106;11.618;2023-04-10T08:21:43;11.50;69.80
27368;DHT22;14839;48.106;11.618;2023-04-10T08:24:08;11.90;68.60
27368;DHT22;14839;48.106;11.618;2023-04-10T08:26:34;12.20;67.40
27368;DHT22;14839;48.106;11.618;2023-04-10T08:29:00;12.20;66.50
27368;DHT22;14839;48.106;11.618;2023-04-10T08:31:26;12.20;66.40
27368;DHT22;14839;48.106;11.618;2023-04-10T08:33:52;12.40;66.40
27368;DHT22;14839;48.106;11.618;2023-04-10T08:36:18;12.10;66.70
27368;DHT22;14839;48.106;11.618;2023-04-10T08:38:44;11.90;67.60
27368;DHT22;14839;48.106;11.618;2023-04-10T08:41:11;12.30;66.50
27368;DHT22;14839;48.106;11.618;2023-04-10T08:43:37;12.10;65.00
27368;DHT22;14839;48.106;11.618;2023-04-10T08:46:03;12.00;65.50
27368;DHT22;14839;48.106;11.618;2023-04-10T08:49:02;12.40;66.40
27368;DHT22;14839;48.106;11.618;2023-04-10T08:51:35;13.10;63.50
27368;DHT22;14839;48.106;11.618;2023-04-10T08:54:07;13.80;61.60
27368;DHT22;14839;48.106;11.618;2023-04-10T08:56:36;14.00;60.80
27368;DHT22;14839;48.106;11.618;2023-04-10T08:59:03;13.80;61.00
27368;DHT22;14839;48.106;11.618;2023-04-10T09:01:29;13.60;61.90
27368;DHT22;14839;48.106;11.618;2023-04-10T09:03:56;13.50;63.10
27368;DHT22;14839;48.106;11.618;2023-04-10T09:06:22;13.50;63.20
27368;DHT22;14839;48.106;11.618;2023-04-10T09:08:47;13.10;62.90
27368;DHT22;14839;48.106;11.618;2023-04-10T09:11:13;13.30;62.30
27368;DHT22;14839;48.106;11.618;2023-04-10T09:13:43;13.30;61.70
27368;DHT22;14839;48.106;11.618;2023-04-10T09:16:10;14.30;62.30
27368;DHT22;14839;48.106;11.618;2023-04-10T09:18:47;14.60;58.80
27368;DHT22;14839;48.106;11.618;2023-04-10T09:21:18;15.20;58.40
27368;DHT22;14839;48.106;11.618;2023-04-10T09:23:45;15.50;57.80
27368;DHT22;14839;48.106;11.618;2023-04-10T09:26:30;15.70;56.90
27368;DHT22;14839;48.106;11.618;2023-04-10T09:31:37;16.70;52.30
27368;DHT22;14839;48.106;11.618;2023-04-10T09:34:07;16.40;51.90
27368;DHT22;14839;48.106;11.618;2023-04-10T09:36:33;16.60;52.30
27368;DHT22;14839;48.106;11.618;2023-04-10T09:38:59;17.10;51.70
27368;DHT22;14839;48.106;11.618;2023-04-10T09:41:24;16.90;50.70
27368;DHT22;14839;48.106;11.618;2023-04-10T09:44:13;16.90;50.10
27368;DHT22;14839;48.106;11.618;2023-04-10T09:46:38;15.60;52.30
27368;DHT22;14839;48.106;11.618;2023-04-10T09:49:04;14.70;54.20
27368;DHT22;14839;48.106;11.618;2023-04-10T09:51:33;15.00;54.40
27368;DHT22;14839;48.106;11.618;2023-04-10T09:53:59;15.70;52.70
27368;DHT22;14839;48.106;11.618;2023-04-10T09:56:25;15.80;52.40
27368;DHT22;14839;48.106;11.618;2023-04-10T09:58:56;16.00;52.40
27368;DHT22;14839;48.106;11.618;2023-04-10T10:01:26;16.20;51.70
27368;DHT22;14839;48.106;11.618;2023-04-10T10:03:54;16.10;51.40
27368;DHT22;14839;48.106;11.618;2023-04-10T10:06:21;16.50;51.00
27368;DHT22;14839;48.106;11.618;2023-04-10T10:08:47;16.40;49.90
27368;DHT22;14839;48.106;11.618;2023-04-10T10:11:17;16.50;50.50
27368;DHT22;14839;48.106;11.618;2023-04-10T10:13:48;16.10;49.30
27368;DHT22;14839;48.106;11.618;2023-04-10T10:19:18;15.10;52.70
27368;DHT22;14839;48.106;11.618;2023-04-10T10:21:46;14.40;53.20
27368;DHT22;14839;48.106;11.618;2023-04-10T10:24:12;13.90;54.80
27368;DHT22;14839;48.106;11.618;2023-04-10T10:26:39;14.50;53.80
27368;DHT22;14839;48.106;11.618;2023-04-10T10:29:07;15.10;52.00
27368;DHT22;14839;48.106;11.618;2023-04-10T10:31:36;15.30;53.30
27368;DHT22;14839;48.106;11.618;2023-04-10T10:34:03;15.60;52.30
27368;DHT22;14839;48.106;11.618;2023-04-10T10:36:37;15.10;52.40
27368;DHT22;14839;48.106;11.618;2023-04-10T10:39:31;14.60;53.30
27368;DHT22;14839;48.106;11.618;2023-04-10T10:42:28;15.20;52.20
27368;DHT22;14839;48.106;11.618;2023-04-10T10:45:12;15.40;51.60
27368;DHT22;14839;48.106;11.618;2023-04-10T10:47:52;15.00;53.60
27368;DHT22;14839;48.106;11.618;2023-04-10T10:50:18;14.90;51.70
27368;DHT22;14839;48.106;11.618;2023-04-10T10:52:54;14.40;52.40
27368;DHT22;14839;48.106;11.618;2023-04-10T10:57:51;14.80;50.70
27368;DHT22;14839;48.106;11.618;2023-04-10T11:00:19;14.90;53.20
27368;DHT22;14839;48.106;11.618;2023-04-10T11:02:44;14.70;51.10
27368;DHT22;14839;48.106;11.618;2023-04-10T11:05:56;14.90;48.80
27368;DHT22;14839;48.106;11.618;2023-04-10T11:13:39;15.40;47.00
27368;DHT22;14839;48.106;11.618;2023-04-10T11:16:07;15.40;44.30
27368;DHT22;14839;48.106;11.618;2023-04-10T11:21:10;14.90;45.60
27368;DHT22;14839;48.106;11.618;2023-04-10T11:26:34;13.80;49.30
27368;DHT22;14839;48.106;11.618;2023-04-10T11:31:43;14.00;48.60
27368;DHT22;14839;48.106;11.618;2023-04-10T11:34:11;14.10;48.50
27368;DHT22;14839;48.106;11.618;2023-04-10T11:36:41;14.10;48.60
27368;DHT22;14839;48.106;11.618;2023-04-10T11:39:11;14.20;49.50
27368;DHT22;14839;48.106;11.618;2023-04-10T11:41:39;14.50;48.90
27368;DHT22;14839;48.106;11.618;2023-04-10T11:44:07;14.50;46.40
27368;DHT22;14839;48.106;11.618;2023-04-10T11:46:44;14.40;48.80
27368;DHT22;14839;48.106;11.618;2023-04-10T11:49:15;14.40;50.80
27368;DHT22;14839;48.106;11.618;2023-04-10T11:51:45;14.60;50.80
27368;DHT22;14839;48.106;11.618;2023-04-10T11:54:13;14.90;50.70
27368;DHT22;14839;48.106;11.618;2023-04-10T11:56:41;14.70;50.20
27368;DHT22;14839;48.106;11.618;2023-04-10T11:59:08;14.40;50.80
27368;DHT22;14839;48.106;11.618;2023-04-10T12:01:36;14.70;51.90
27368;DHT22;14839;48.106;11.618;2023-04-10T12:04:01;14.90;49.20
27368;DHT22;14839;48.106;11.618;2023-04-10T12:06:27;14.90;46.70
27368;DHT22;14839;48.106;11.618;2023-04-10T12:08:53;14.70;48.20
27368;DHT22;14839;48.106;11.618;2023-04-10T12:11:21;14.40;48.50
27368;DHT22;14839;48.106;11.618;2023-04-10T12:13:48;14.00;49.80
27368;DHT22;14839;48.106;11.618;2023-04-10T12:16:16;14.10;51.30
27368;DHT22;14839;48.106;11.618;2023-04-10T12:18:42;14.10;51.40
27368;DHT22;14839;48.106;11.618;2023-04-10T12:21:09;14.00;51.70
27368;DHT22;14839;48.106;11.618;2023-04-10T12:23:36;14.30;51.00
27368;DHT22;14839;48.106;11.618;2023-04-10T12:26:11;14.30;50.70
27368;DHT22;14839;48.106;11.618;2023-04-10T12:28:38;14.50;51.10
27368;DHT22;14839;48.106;11.618;2023-04-10T12:31:04;14.40;50.80
27368;DHT22;14839;48.106;11.618;2023-04-10T12:33:30;14.20;51.40
27368;DHT22;14839;48.106;11.618;2023-04-10T12:35:55;14.30;51.70
27368;DHT22;14839;48.106;11.618;2023-04-10T12:38:38;14.40;51.90
27368;DHT22;14839;48.106;11.618;2023-04-10T12:41:04;14.30;50.80
27368;DHT22;14839;48.106;11.618;2023-04-10T12:43:38;14.30;52.20
27368;DHT22;14839;48.106;11.618;2023-04-10T12:46:04;14.40;51.10
27368;DHT22;14839;48.106;11.618;2023-04-10T12:48:30;14.50;48.20
27368;DHT22;14839;48.106;11.618;2023-04-10T12:50:56;14.30;48.00
27368;DHT22;14839;48.106;11.618;2023-04-10T12:53:22;14.30;49.80
27368;DHT22;14839;48.106;11.618;2023-04-10T12:56:04;14.20;52.40
27368;DHT22;14839;48.106;11.618;2023-04-10T12:58:32;14.30;51.70
27368;DHT22;14839;48.106;11.618;2023-04-10T13:01:02;14.50;50.80
27368;DHT22;14839;48.106;11.618;2023-04-10T13:03:28;14.40;51.40
27368;DHT22;14839;48.106;11.618;2023-04-10T13:05:54;14.50;52.90
27368;DHT22;14839;48.106;11.618;2023-04-10T13:08:20;14.40;51.90
27368;DHT22;14839;48.106;11.618;2023-04-10T13:10:47;14.60;51.40
27368;DHT22;14839;48.106;11.618;2023-04-10T13:13:13;14.70;51.10
27368;DHT22;14839;48.106;11.618;2023-04-10T13:15:39;14.70;50.80
27368;DHT22;14839;48.106;11.618;2023-04-10T13:18:05;14.80;51.40
27368;DHT22;14839;48.106;11.618;2023-04-10T13:20:32;14.60;50.70
27368;DHT22;14839;48.106;11.618;2023-04-10T13:22:58;14.40;50.80
27368;DHT22;14839;48.106;11.618;2023-04-10T13:25:24;14.50;51.10
27368;DHT22;14839;48.106;11.618;2023-04-10T13:27:51;14.60;49.90
27368;DHT22;14839;48.106;11.618;2023-04-10T13:30:17;14.50;52.30
27368;DHT22;14839;48.106;11.618;2023-04-10T13:32:42;14.40;50.50
27368;DHT22;14839;48.106;11.618;2023-04-10T13:35:08;14.60;51.10
27368;DHT22;14839;48.106;11.618;2023-04-10T13:37:34;14.70;51.30
27368;DHT22;14839;48.106;11.618;2023-04-10T13:39:59;14.80;51.10
27368;DHT22;14839;48.106;11.618;2023-04-10T13:42:25;14.60;49.50
27368;DHT22;14839;48.106;11.618;2023-04-10T13:44:50;14.50;50.10
27368;DHT22;14839;48.106;11.618;2023-04-10T13:47:16;14.50;50.50
27368;DHT22;14839;48.106;11.618;2023-04-10T13:49:42;14.60;50.70
27368;DHT22;14839;48.106;11.618;2023-04-10T13:52:07;14.60;51.70
27368;DHT22;14839;48.106;11.618;2023-04-10T13:54:33;14.70;52.60
27368;DHT22;14839;48.106;11.618;2023-04-10T13:56:59;14.80;51.40
27368;DHT22;14839;48.106;11.618;2023-04-10T13:59:25;14.90;50.40
27368;DHT22;14839;48.106;11.618;2023-04-10T14:01:50;14.70;49.60
27368;DHT22;14839;48.106;11.618;2023-04-10T14:04:17;14.70;50.70
27368;DHT22;14839;48.106;11.618;2023-04-10T14:06:42;14.70;51.10
27368;DHT22;14839;48.106;11.618;2023-04-10T14:09:08;14.80;50.80
27368;DHT22;14839;48.106;11.618;2023-04-10T14:11:34;15.00;50.70
27368;DHT22;14839;48.106;11.618;2023-04-10T14:13:59;15.00;49.30
27368;DHT22;14839;48.106;11.618;2023-04-10T14:16:25;15.10;48.90
27368;DHT22;14839;48.106;11.618;2023-04-10T14:18:50;15.00;50.50
27368;DHT22;14839;48.106;11.618;2023-04-10T14:21:16;15.10;49.30
27368;DHT22;14839;48.106;11.618;2023-04-10T14:23:42;15.00;49.20
27368;DHT22;14839;48.106;11.618;2023-04-10T14:26:07;14.90;49.20
27368;DHT22;14839;48.106;11.618;2023-04-10T14:28:33;14.90;49.20
27368;DHT22;14839;48.106;11.618;2023-04-10T14:30:58;14.90;49.30
27368;DHT22;14839;48.106;11.618;2023-04-10T14:33:25;14.70;49.30
27368;DHT22;14839;48.106;11.618;2023-04-10T14:35:52;14.60;49.90
27368;DHT22;14839;48.106;11.618;2023-04-10T14:38:17;14.70;49.80
27368;DHT22;14839;48.106;11.618;2023-04-10T14:40:43;14.70;50.40
27368;DHT22;14839;48.106;11.618;2023-04-10T14:43:12;14.80;49.90
27368;DHT22;14839;48.106;11.618;2023-04-10T14:45:38;14.80;49.80
27368;DHT22;14839;48.106;11.618;2023-04-10T14:48:03;14.90;50.20
27368;DHT22;14839;48.106;11.618;2023-04-10T14:50:32;15.10;50.40
27368;DHT22;14839;48.106;11.618;2023-04-10T14:52:58;15.10;50.20
27368;DHT22;14839;48.106;11.618;2023-04-10T14:55:27;14.90;49.80
27368;DHT22;14839;48.106;11.618;2023-04-10T14:57:53;14.70;50.20
27368;DHT22;14839;48.106;11.618;2023-04-10T15:00:19;14.80;49.90
27368;DHT22;14839;48.106;11.618;2023-04-10T15:02:44;14.80;49.50
27368;DHT22;14839;48.106;11.618;2023-04-10T15:05:10;14.60;49.90
27368;DHT22;14839;48.106;11.618;2023-04-10T15:07:36;14.60;50.10
27368;DHT22;14839;48.106;11.618;2023-04-10T15:10:02;14.70;49.80
27368;DHT22;14839;48.106;11.618;2023-04-10T15:12:28;14.80;50.40
27368;DHT22;14839;48.106;11.618;2023-04-10T15:14:53;14.90;50.80
27368;DHT22;14839;48.106;11.618;2023-04-10T15:17:21;14.90;49.90
27368;DHT22;14839;48.106;11.618;2023-04-10T15:19:47;14.80;50.20
27368;DHT22;14839;48.106;11.618;2023-04-10T15:22:13;14.70;51.10
27368;DHT22;14839;48.106;11.618;2023-04-10T15:24:38;14.80;51.10
27368;DHT22;14839;48.106;11.618;2023-04-10T15:27:05;14.90;50.80
27368;DHT22;14839;48.106;11.618;2023-04-10T15:29:31;14.90;50.10
27368;DHT22;14839;48.106;11.618;2023-04-10T15:32:01;14.90;50.50
27368;DHT22;14839;48.106;11.618;2023-04-10T15:34:27;14.90;50.10
27368;DHT22;14839;48.106;11.618;2023-04-10T15:36:52;14.80;50.20
27368;DHT22;14839;48.106;11.618;2023-04-10T15:39:18;14.70;51.10
27368;DHT22;14839;48.106;11.618;2023-04-10T15:41:44;14.60;51.30
27368;DHT22;14839;48.106;11.618;2023-04-10T15:44:09;14.60;51.70
27368;DHT22;14839;48.106;11.618;2023-04-10T15:46:35;14.50;51.70
27368;DHT22;14839;48.106;11.618;2023-04-10T15:49:02;14.50;52.00
27368;DHT22;14839;48.106;11.618;2023-04-10T15:51:27;14.50;52.20
27368;DHT22;14839;48.106;11.618;2023-04-10T15:53:53;14.30;51.60
27368;DHT22;14839;48.106;11.618;2023-04-10T15:56:18;14.30;52.60
27368;DHT22;14839;48.106;11.618;2023-04-10T15:58:45;14.30;53.30
27368;DHT22;14839;48.106;11.618;2023-04-10T16:01:10;14.30;53.20
27368;DHT22;14839;48.106;11.618;2023-04-10T16:03:36;14.30;53.60
27368;DHT22;14839;48.106;11.618;2023-04-10T16:06:01;14.50;53.50
27368;DHT22;14839;48.106;11.618;2023-04-10T16:08:27;14.40;53.20
27368;DHT22;14839;48.106;11.618;2023-04-10T16:10:53;14.40;53.00
27368;DHT22;14839;48.106;11.618;2023-04-10T16:13:18;14.30;53.80
27368;DHT22;14839;48.106;11.618;2023-04-10T16:15:44;14.20;53.90
27368;DHT22;14839;48.106;11.618;2023-04-10T16:18:11;14.10;55.00
27368;DHT22;14839;48.106;11.618;2023-04-10T16:20:42;14.10;54.40
27368;DHT22;14839;48.106;11.618;2023-04-10T16:23:08;13.90;55.30
27368;DHT22;14839;48.106;11.618;2023-04-10T16:25:33;13.90;55.10
27368;DHT22;14839;48.106;11.618;2023-04-10T16:28:00;13.80;55.50
27368;DHT22;14839;48.106;11.618;2023-04-10T16:30:26;13.70;56.00
27368;DHT22;14839;48.106;11.618;2023-04-10T16:32:51;13.70;56.40
27368;DHT22;14839;48.106;11.618;2023-04-10T16:35:17;13.60;57.50
27368;DHT22;14839;48.106;11.618;2023-04-10T16:37:44;13.50;57.30
27368;DHT22;14839;48.106;11.618;2023-04-10T16:40:10;13.40;57.60
27368;DHT22;14839;48.106;11.618;2023-04-10T16:42:37;13.40;58.20
27368;DHT22;14839;48.106;11.618;2023-04-10T16:45:04;13.40;58.70
27368;DHT22;14839;48.106;11.618;2023-04-10T16:47:30;13.40;58.90
27368;DHT22;14839;48.106;11.618;2023-04-10T16:49:55;13.40;58.80
27368;DHT22;14839;48.106;11.618;2023-04-10T16:52:21;13.40;59.10
27368;DHT22;14839;48.106;11.618;2023-04-10T16:54:47;13.40;59.50
27368;DHT22;14839;48.106;11.618;2023-04-10T16:57:12;13.30;60.10
27368;DHT22;14839;48.106;11.618;2023-04-10T16:59:38;13.30;60.40
27368;DHT22;14839;48.106;11.618;2023-04-10T17:02:03;13.20;60.70
27368;DHT22;14839;48.106;11.618;2023-04-10T17:04:29;13.20;61.40
27368;DHT22;14839;48.106;11.618;2023-04-10T17:06:55;13.10;61.30
27368;DHT22;14839;48.106;11.618;2023-04-10T17:09:20;13.00;61.40
27368;DHT22;14839;48.106;11.618;2023-04-10T17:11:46;13.00;62.00
27368;DHT22;14839;48.106;11.618;2023-04-10T17:14:11;13.00;62.00
27368;DHT22;14839;48.106;11.618;2023-04-10T17:16:38;12.90;62.60
27368;DHT22;14839;48.106;11.618;2023-04-10T17:19:04;12.80;62.80
27368;DHT22;14839;48.106;11.618;2023-04-10T17:21:29;12.80;62.90
27368;DHT22;14839;48.106;11.618;2023-04-10T17:23:56;12.80;63.20
27368;DHT22;14839;48.106;11.618;2023-04-10T17:26:21;12.70;63.50
27368;DHT22;14839;48.106;11.618;2023-04-10T17:28:48;12.70;64.10
27368;DHT22;14839;48.106;11.618;2023-04-10T17:31:14;12.60;64.30
27368;DHT22;14839;48.106;11.618;2023-04-10T17:33:40;12.50;64.70
27368;DHT22;14839;48.106;11.618;2023-04-10T17:36:07;12.40;65.20
27368;DHT22;14839;48.106;11.618;2023-04-10T17:38:32;12.40;65.30
27368;DHT22;14839;48.106;11.618;2023-04-10T17:40:58;12.30;65.50
27368;DHT22;14839;48.106;11.618;2023-04-10T17:43:24;12.30;65.90
27368;DHT22;14839;48.106;11.618;2023-04-10T17:45:49;12.20;66.20
27368;DHT22;14839;48.106;11.618;2023-04-10T17:48:15;12.20;66.70
27368;DHT22;14839;48.106;11.618;2023-04-10T17:50:40;12.10;66.70
27368;DHT22;14839;48.106;11.618;2023-04-10T17:53:06;12.10;67.00
27368;DHT22;14839;48.106;11.618;2023-04-10T17:55:37;12.00;67.30
27368;DHT22;14839;48.106;11.618;2023-04-10T17:58:03;12.00;67.40
27368;DHT22;14839;48.106;11.618;2023-04-10T18:00:29;11.90;67.40
27368;DHT22;14839;48.106;11.618;2023-04-10T18:02:55;11.90;67.70
27368;DHT22;14839;48.106;11.618;2023-04-10T18:05:28;11.80;67.70
27368;DHT22;14839;48.106;11.618;2023-04-10T18:07:54;11.80;68.20
27368;DHT22;14839;48.106;11.618;2023-04-10T18:10:19;11.70;68.60
27368;DHT22;14839;48.106;11.618;2023-04-10T18:12:45;11.60;68.90
27368;DHT22;14839;48.106;11.618;2023-04-10T18:15:11;11.60;69.10
27368;DHT22;14839;48.106;11.618;2023-04-10T18:17:38;11.50;69.50
27368;DHT22;14839;48.106;11.618;2023-04-10T18:20:05;11.40;69.70
27368;DHT22;14839;48.106;11.618;2023-04-10T18:22:30;11.40;69.50
27368;DHT22;14839;48.106;11.618;2023-04-10T18:24:56;11.40;69.50
27368;DHT22;14839;48.106;11.618;2023-04-10T18:27:21;11.40;69.80
27368;DHT22;14839;48.106;11.618;2023-04-10T18:29:47;11.30;70.60
27368;DHT22;14839;48.106;11.618;2023-04-10T18:32:13;11.20;70.70
27368;DHT22;14839;48.106;11.618;2023-04-10T18:34:38;11.20;70.90
27368;DHT22;14839;48.106;11.618;2023-04-10T18:37:04;11.20;71.00
27368;DHT22;14839;48.106;11.618;2023-04-10T18:39:30;11.10;71.50
27368;DHT22;14839;48.106;11.618;2023-04-10T18:41:56;11.00;71.80
27368;DHT22;14839;48.106;11.618;2023-04-10T18:44:22;11.10;71.60
27368;DHT22;14839;48.106;11.618;2023-04-10T18:46:48;11.00;72.10
27368;DHT22;14839;48.106;11.618;2023-04-10T18:49:14;11.00;72.10
27368;DHT22;14839;48.106;11.618;2023-04-10T18:51:40;10.90;72.50
27368;DHT22;14839;48.106;11.618;2023-04-10T18:54:06;10.90;73.10
27368;DHT22;14839;48.106;11.618;2023-04-10T18:56:31;10.80;73.30
27368;DHT22;14839;48.106;11.618;2023-04-10T18:58:59;10.80;73.60
27368;DHT22;14839;48.106;11.618;2023-04-10T19:01:25;10.80;73.90
27368;DHT22;14839;48.106;11.618;2023-04-10T19:03:52;10.70;74.50
27368;DHT22;14839;48.106;11.618;2023-04-10T19:06:19;10.60;74.60
27368;DHT22;14839;48.106;11.618;2023-04-10T19:08:48;10.60;75.70
27368;DHT22;14839;48.106;11.618;2023-04-10T19:11:14;10.50;76.00
27368;DHT22;14839;48.106;11.618;2023-04-10T19:13:40;10.40;76.10
27368;DHT22;14839;48.106;11.618;2023-04-10T19:16:05;10.40;76.70
27368;DHT22;14839;48.106;11.618;2023-04-10T19:18:33;10.30;77.00
27368;DHT22;14839;48.106;11.618;2023-04-10T19:20:59;10.20;77.20
27368;DHT22;14839;48.106;11.618;2023-04-10T19:23:25;10.10;77.90
27368;DHT22;14839;48.106;11.618;2023-04-10T19:25:51;10.10;78.50
27368;DHT22;14839;48.106;11.618;2023-04-10T19:28:17;10.00;78.80
27368;DHT22;14839;48.106;11.618;2023-04-10T19:30:43;9.90;79.00
27368;DHT22;14839;48.106;11.618;2023-04-10T19:33:08;9.80;79.60
27368;DHT22;14839;48.106;11.618;2023-04-10T19:35:34;9.70;80.20
27368;DHT22;14839;48.106;11.618;2023-04-10T19:38:00;9.60;80.60